Time;durP1;ratioP1;P1;durP2;ratioP2;P2;SDS_P1;SDS_P2;PMS_P1;PMS_P2;Temp;Humidity;BMP_temperature;BMP_pressure;BME280_temperature;BME280_humidity;BME280_pressure;Samples;Min_cycle;Max_cycle;Signal;HPM_P1;HPM_P2
2022/01/05 00:02:05;;;;;;;42.15;4.00;;;;;;;;;;5019262;28;20040;-57
2022/01/05 00:04:31;;;;;;;25.30;4.20;;;;;;;;;;5016555;28;20452;-56
2022/01/05 00:06:56;;;;;;;15.23;3.50;;;;;;;;;;5021539;28;20099;-57
2022/01/05 00:09:22;;;;;;;7.32;3.58;;;;;;;;;;5022265;28;20026;-57
2022/01/05 00:11:47;;;;;;;8.70;3.00;;;;;;;;;;5019984;28;20029;-57
2022/01/05 00:14:13;;;;;;;11.63;2.80;;;;;;;;;;5022096;28;20025;-57
2022/01/05 00:16:38;;;;;;;15.68;3.65;;;;;;;;;;5023032;28;20025;-59
2022/01/05 00:19:04;;;;;;;17.08;3.50;;;;;;;;;;5018184;28;20092;-57
2022/01/05 00:21:29;;;;;;;16.17;3.78;;;;;;;;;;5019058;28;20029;-57
2022/01/05 00:23:55;;;;;;;42.25;4.28;;;;;;;;;;5023816;28;20319;-58
2022/01/05 00:26:20;;;;;;;21.42;4.78;;;;;;;;;;5019752;28;20456;-57
2022/01/05 00:28:46;;;;;;;17.90;3.53;;;;;;;;;;5021046;28;20061;-58
2022/01/05 00:31:11;;;;;;;15.98;3.63;;;;;;;;;;5023424;28;20025;-58
2022/01/05 00:33:37;;;;;;;12.38;3.17;;;;;;;;;;5019468;28;20056;-57
2022/01/05 00:36:03;;;;;;;23.25;4.25;;;;;;;;;;5020886;28;20148;-57
2022/01/05 00:38:29;;;;;;;14.85;3.67;;;;;;;;;;5019135;28;20065;-56
2022/01/05 00:40:54;;;;;;;17.67;3.70;;;;;;;;;;5024021;28;20045;-58
2022/01/05 00:43:20;;;;;;;14.35;5.38;;;;;;;;;;5021834;28;20037;-58
2022/01/05 00:45:45;;;;;;;15.23;4.63;;;;;;;;;;5023808;28;20037;-56
2022/01/05 00:48:11;;;;;;;12.43;4.05;;;;;;;;;;5020522;28;20040;-57
2022/01/05 00:50:36;;;;;;;26.10;4.40;;;;;;;;;;5024864;28;20362;-56
2022/01/05 00:53:02;;;;;;;20.25;6.00;;;;;;;;;;5023724;28;20049;-58
2022/01/05 00:55:28;;;;;;;10.93;2.85;;;;;;;;;;5021189;28;20063;-58
2022/01/05 00:57:54;;;;;;;18.40;4.28;;;;;;;;;;5024841;28;20030;-58
2022/01/05 01:00:20;;;;;;;11.48;3.50;;;;;;;;;;5031901;28;20450;-57
2022/01/05 01:02:45;;;;;;;11.07;2.75;;;;;;;;;;5042135;28;20037;-58
2022/01/05 01:05:13;;;;;;;16.42;3.38;;;;;;;;;;5042391;28;20068;-58
2022/01/05 01:07:38;;;;;;;21.30;3.72;;;;;;;;;;5042008;28;20511;-58
2022/01/05 01:10:04;;;;;;;12.63;2.92;;;;;;;;;;5053705;28;20024;-58
2022/01/05 01:12:30;;;;;;;17.58;3.70;;;;;;;;;;5038228;28;20189;-58
2022/01/05 01:14:55;;;;;;;16.00;2.95;;;;;;;;;;5039976;28;20430;-58
2022/01/05 01:17:22;;;;;;;11.45;3.97;;;;;;;;;;5045522;28;20117;-58
2022/01/05 01:19:47;;;;;;;16.10;4.03;;;;;;;;;;5040936;28;20115;-58
2022/01/05 01:22:13;;;;;;;20.17;3.85;;;;;;;;;;5039243;28;20171;-58
2022/01/05 01:24:39;;;;;;;21.92;4.53;;;;;;;;;;5042947;28;20107;-58
2022/01/05 01:27:06;;;;;;;21.35;3.40;;;;;;;;;;5038915;28;20101;-57
2022/01/05 01:29:31;;;;;;;24.42;4.10;;;;;;;;;;5043278;28;20313;-57
2022/01/05 01:31:57;;;;;;;24.02;4.45;;;;;;;;;;5036840;28;20127;-58
2022/01/05 01:34:23;;;;;;;12.52;3.10;;;;;;;;;;5038503;28;20033;-57
2022/01/05 01:36:49;;;;;;;9.45;3.10;;;;;;;;;;5043451;28;20072;-58
2022/01/05 01:39:14;;;;;;;22.40;3.50;;;;;;;;;;5042019;28;20056;-57
2022/01/05 01:41:40;;;;;;;11.02;3.47;;;;;;;;;;5035775;28;20123;-57
2022/01/05 01:44:06;;;;;;;17.33;3.20;;;;;;;;;;5038319;28;20033;-57
2022/01/05 01:46:32;;;;;;;20.77;3.70;;;;;;;;;;5035667;28;20021;-59
2022/01/05 01:48:57;;;;;;;24.50;4.47;;;;;;;;;;5038773;28;20100;-59
2022/01/05 01:51:23;;;;;;;17.83;3.53;;;;;;;;;;5041241;28;20186;-58
2022/01/05 01:53:49;;;;;;;18.90;3.60;;;;;;;;;;5042207;28;20052;-57
2022/01/05 01:56:16;;;;;;;13.50;3.63;;;;;;;;;;5038510;28;20413;-56
2022/01/05 01:58:44;;;;;;;11.85;3.75;;;;;;;;;;5041032;28;20035;-56
2022/01/05 02:01:09;;;;;;;15.15;3.55;;;;;;;;;;5041006;28;20392;-57
2022/01/05 02:03:35;;;;;;;14.85;2.33;;;;;;;;;;5040513;28;20033;-58
2022/01/05 02:06:00;;;;;;;20.02;4.50;;;;;;;;;;5038718;28;20068;-58
2022/01/05 02:08:27;;;;;;;24.23;4.65;;;;;;;;;;5035436;28;20112;-58
2022/01/05 02:10:53;;;;;;;21.40;3.33;;;;;;;;;;5042811;28;20055;-57
2022/01/05 02:13:19;;;;;;;23.65;4.47;;;;;;;;;;5043892;28;20039;-58
2022/01/05 02:15:49;;;;;;;19.08;4.72;;;;;;;;;;5045835;28;20025;-58
2022/01/05 02:20:47;;;;;;;19.53;3.80;;;;;;;;;;5044301;28;20102;-57
2022/01/05 02:23:13;;;;;;;19.55;4.50;;;;;;;;;;5045614;28;20570;-57
2022/01/05 02:25:38;;;;;;;17.33;3.67;;;;;;;;;;5041544;28;20033;-58
2022/01/05 02:28:04;;;;;;;12.45;3.95;;;;;;;;;;5044603;28;20037;-57
2022/01/05 02:30:30;;;;;;;11.13;2.95;;;;;;;;;;5040623;28;20026;-57
2022/01/05 02:32:57;;;;;;;14.02;3.22;;;;;;;;;;5046169;28;20072;-58
2022/01/05 02:35:24;;;;;;;14.93;3.25;;;;;;;;;;5044265;28;20048;-57
2022/01/05 02:37:51;;;;;;;9.13;3.83;;;;;;;;;;5042414;28;20029;-58
2022/01/05 02:40:19;;;;;;;11.77;2.50;;;;;;;;;;5037341;28;20128;-57
2022/01/05 02:42:45;;;;;;;12.20;2.47;;;;;;;;;;5050037;28;20024;-57
2022/01/05 02:45:12;;;;;;;15.73;3.20;;;;;;;;;;5045038;28;20119;-57
2022/01/05 02:47:38;;;;;;;22.02;3.33;;;;;;;;;;5046285;28;20083;-57
2022/01/05 02:50:06;;;;;;;16.45;3.92;;;;;;;;;;5045793;28;20240;-57
2022/01/05 02:52:32;;;;;;;21.00;3.28;;;;;;;;;;5046129;28;20031;-58
2022/01/05 02:54:58;;;;;;;15.27;3.00;;;;;;;;;;5037282;28;20029;-58
2022/01/05 02:57:23;;;;;;;9.73;2.58;;;;;;;;;;5041473;28;20028;-57
2022/01/05 02:59:49;;;;;;;11.80;2.90;;;;;;;;;;5040672;28;20132;-58
2022/01/05 03:02:14;;;;;;;21.52;4.65;;;;;;;;;;5045453;28;20519;-58
2022/01/05 03:04:41;;;;;;;15.85;4.22;;;;;;;;;;5042431;28;20029;-58
2022/01/05 03:07:08;;;;;;;13.73;2.80;;;;;;;;;;5042056;28;20045;-57
2022/01/05 03:09:33;;;;;;;20.00;4.40;;;;;;;;;;5044145;28;20037;-58
2022/01/05 03:11:59;;;;;;;16.23;3.83;;;;;;;;;;5040069;28;20024;-57
2022/01/05 03:14:24;;;;;;;14.50;3.28;;;;;;;;;;5040922;28;20033;-57
2022/01/05 03:16:50;;;;;;;14.30;3.00;;;;;;;;;;5042823;28;20025;-57
2022/01/05 03:19:15;;;;;;;11.40;2.60;;;;;;;;;;5035107;28;20052;-56
2022/01/05 03:21:41;;;;;;;19.73;2.65;;;;;;;;;;5041209;28;20041;-57
2022/01/05 03:24:06;;;;;;;10.02;2.28;;;;;;;;;;5042807;28;20037;-57
2022/01/05 03:26:32;;;;;;;9.25;2.65;;;;;;;;;;5043876;28;20031;-56
2022/01/05 03:28:57;;;;;;;13.90;2.97;;;;;;;;;;5041490;28;20059;-57
2022/01/05 03:31:23;;;;;;;19.33;3.90;;;;;;;;;;5041295;28;20070;-58
2022/01/05 03:33:49;;;;;;;17.40;2.83;;;;;;;;;;5043893;28;20068;-58
2022/01/05 03:36:16;;;;;;;14.70;2.60;;;;;;;;;;5040924;28;20102;-56
2022/01/05 03:38:41;;;;;;;15.20;3.20;;;;;;;;;;5043567;28;20067;-56
2022/01/05 03:41:07;;;;;;;16.48;3.72;;;;;;;;;;5039027;28;20465;-57
2022/01/05 03:43:32;;;;;;;23.73;3.88;;;;;;;;;;5040150;28;20045;-58
2022/01/05 03:45:58;;;;;;;17.17;2.47;;;;;;;;;;5075910;28;20025;-58
2022/01/05 03:48:24;;;;;;;17.33;2.92;;;;;;;;;;5041166;28;20108;-58
2022/01/05 03:50:50;;;;;;;12.30;3.00;;;;;;;;;;5043337;28;20040;-57
2022/01/05 03:53:15;;;;;;;16.40;2.80;;;;;;;;;;5072513;28;20094;-58
2022/01/05 03:55:43;;;;;;;12.43;3.13;;;;;;;;;;5042209;28;20435;-58
2022/01/05 03:58:10;;;;;;;9.82;3.05;;;;;;;;;;5040765;28;20040;-57
2022/01/05 04:00:44;;;;;;;10.48;2.22;;;;;;;;;;5042407;28;20072;-58
2022/01/05 04:03:10;;;;;;;10.23;2.22;;;;;;;;;;5041683;28;20533;-58
2022/01/05 04:05:36;;;;;;;15.82;3.22;;;;;;;;;;5072266;28;20047;-58
2022/01/05 04:08:02;;;;;;;18.17;2.58;;;;;;;;;;5042001;28;20043;-57
2022/01/05 04:10:28;;;;;;;21.27;3.20;;;;;;;;;;5039154;28;20441;-57
2022/01/05 04:12:53;;;;;;;14.77;2.80;;;;;;;;;;5042671;28;20036;-57
2022/01/05 04:15:20;;;;;;;13.27;2.40;;;;;;;;;;5039496;28;20395;-58
2022/01/05 04:17:45;;;;;;;11.98;1.92;;;;;;;;;;5072747;28;20516;-58
2022/01/05 04:20:12;;;;;;;12.07;2.67;;;;;;;;;;5038547;28;20112;-58
2022/01/05 04:22:39;;;;;;;13.57;2.08;;;;;;;;;;5042265;28;20021;-58
2022/01/05 04:25:05;;;;;;;12.18;2.83;;;;;;;;;;5043978;28;20501;-57
2022/01/05 04:27:31;;;;;;;20.00;3.40;;;;;;;;;;5072123;28;20025;-58
2022/01/05 04:29:56;;;;;;;21.20;4.55;;;;;;;;;;5039924;28;20124;-59
2022/01/05 04:32:22;;;;;;;28.38;5.13;;;;;;;;;;5034132;28;20381;-58
2022/01/05 04:34:47;;;;;;;22.42;3.80;;;;;;;;;;5038517;28;20071;-58
2022/01/05 04:37:13;;;;;;;10.32;2.55;;;;;;;;;;5047956;28;20025;-57
2022/01/05 04:39:38;;;;;;;6.57;1.70;;;;;;;;;;5040441;28;20111;-58
2022/01/05 04:42:04;;;;;;;9.05;2.60;;;;;;;;;;5040235;28;20044;-58
2022/01/05 04:44:31;;;;;;;14.80;3.03;;;;;;;;;;5037766;28;20025;-58
2022/01/05 04:46:56;;;;;;;17.42;3.10;;;;;;;;;;5038957;28;20032;-58
2022/01/05 04:49:22;;;;;;;8.63;2.58;;;;;;;;;;5038998;28;20120;-58
2022/01/05 04:51:47;;;;;;;18.08;2.95;;;;;;;;;;5040224;28;20094;-58
2022/01/05 04:54:13;;;;;;;16.77;3.03;;;;;;;;;;5038612;28;20399;-57
2022/01/05 04:56:39;;;;;;;7.28;3.08;;;;;;;;;;5042155;28;20068;-57
2022/01/05 04:59:04;;;;;;;15.77;3.05;;;;;;;;;;5037820;28;20035;-58
2022/01/05 05:01:30;;;;;;;19.42;2.92;;;;;;;;;;5044851;28;20574;-58
2022/01/05 05:03:55;;;;;;;23.98;2.53;;;;;;;;;;5041937;28;20041;-58
2022/01/05 05:06:22;;;;;;;11.30;2.50;;;;;;;;;;5041386;28;20098;-58
2022/01/05 05:08:48;;;;;;;7.32;1.88;;;;;;;;;;5042435;28;20029;-58
2022/01/05 05:11:14;;;;;;;11.07;3.05;;;;;;;;;;5038392;28;20033;-58
2022/01/05 05:13:40;;;;;;;12.25;2.10;;;;;;;;;;5043006;28;20025;-57
2022/01/05 05:16:05;;;;;;;4.50;2.03;;;;;;;;;;5070787;28;20044;-58
2022/01/05 05:18:31;;;;;;;5.97;1.55;;;;;;;;;;5040178;28;20041;-58
2022/01/05 05:20:56;;;;;;;4.90;1.42;;;;;;;;;;5074181;28;20444;-59
2022/01/05 05:23:22;;;;;;;18.38;2.10;;;;;;;;;;5041578;28;20127;-58
2022/01/05 05:25:47;;;;;;;14.38;2.42;;;;;;;;;;5040884;28;20412;-58
2022/01/05 05:28:13;;;;;;;13.23;2.05;;;;;;;;;;5039773;28;20028;-59
2022/01/05 05:30:39;;;;;;;14.45;2.47;;;;;;;;;;5042770;28;20033;-58
2022/01/05 05:33:05;;;;;;;10.07;2.50;;;;;;;;;;5042248;28;20083;-59
2022/01/05 05:35:31;;;;;;;10.43;1.80;;;;;;;;;;5041438;28;20053;-56
2022/01/05 05:37:57;;;;;;;22.58;2.28;;;;;;;;;;5040206;28;20033;-58
2022/01/05 05:40:24;;;;;;;17.35;2.25;;;;;;;;;;5044832;28;20029;-58
2022/01/05 05:42:49;;;;;;;8.35;2.00;;;;;;;;;;5041381;28;20128;-58
2022/01/05 05:45:15;;;;;;;17.13;2.70;;;;;;;;;;5038880;28;20444;-56
2022/01/05 05:47:41;;;;;;;13.43;1.60;;;;;;;;;;5044048;28;20049;-57
2022/01/05 05:50:08;;;;;;;17.58;2.42;;;;;;;;;;5040941;28;20048;-58
2022/01/05 05:52:34;;;;;;;13.88;2.40;;;;;;;;;;5044598;28;20255;-57
2022/01/05 05:54:59;;;;;;;14.75;2.67;;;;;;;;;;5042226;28;20605;-56
2022/01/05 05:57:25;;;;;;;4.28;1.40;;;;;;;;;;5046330;28;20079;-58
2022/01/05 05:59:50;;;;;;;6.80;2.15;;;;;;;;;;5043734;28;20475;-57
2022/01/05 06:02:16;;;;;;;16.58;2.63;;;;;;;;;;5039771;28;20041;-57
2022/01/05 06:04:42;;;;;;;12.55;2.22;;;;;;;;;;5042846;28;20500;-57
2022/01/05 06:07:07;;;;;;;17.95;2.30;;;;;;;;;;5039605;28;20040;-56
2022/01/05 06:09:33;;;;;;;6.07;1.80;;;;;;;;;;5042010;28;20408;-56
2022/01/05 06:11:58;;;;;;;14.80;2.35;;;;;;;;;;5041883;28;20106;-57
2022/01/05 06:14:24;;;;;;;8.43;1.70;;;;;;;;;;5044478;28;20040;-57
2022/01/05 06:16:49;;;;;;;12.57;1.67;;;;;;;;;;5043469;28;20036;-56
2022/01/05 06:19:15;;;;;;;14.02;2.45;;;;;;;;;;5074194;28;20125;-57
2022/01/05 06:21:40;;;;;;;17.02;1.85;;;;;;;;;;5045142;28;20286;-57
2022/01/05 06:24:06;;;;;;;7.22;1.70;;;;;;;;;;5042184;28;20141;-57
2022/01/05 06:26:31;;;;;;;11.30;2.13;;;;;;;;;;5043665;28;20033;-57
2022/01/05 06:28:57;;;;;;;8.77;1.92;;;;;;;;;;5038685;28;20087;-58
2022/01/05 06:31:22;;;;;;;9.80;1.63;;;;;;;;;;5045122;28;20025;-56
2022/01/05 06:33:48;;;;;;;5.15;1.80;;;;;;;;;;5043831;28;20029;-58
2022/01/05 06:36:13;;;;;;;10.63;1.92;;;;;;;;;;5041497;28;20049;-55
2022/01/05 06:38:39;;;;;;;8.40;1.80;;;;;;;;;;5076227;28;20029;-57
2022/01/05 06:41:04;;;;;;;17.65;2.30;;;;;;;;;;5043808;28;20041;-58
2022/01/05 06:43:30;;;;;;;9.05;1.58;;;;;;;;;;5044590;28;20090;-58
2022/01/05 06:45:57;;;;;;;6.13;1.30;;;;;;;;;;5040629;28;20080;-56
2022/01/05 06:48:22;;;;;;;13.57;1.90;;;;;;;;;;5040595;28;20043;-58
2022/01/05 06:50:48;;;;;;;13.20;2.75;;;;;;;;;;5042270;28;20041;-59
2022/01/05 06:53:15;;;;;;;8.63;1.67;;;;;;;;;;5040906;28;20036;-58
2022/01/05 06:55:40;;;;;;;6.63;1.67;;;;;;;;;;5043095;28;20391;-58
2022/01/05 06:58:06;;;;;;;10.95;1.73;;;;;;;;;;5046230;28;20047;-58
2022/01/05 07:00:32;;;;;;;12.40;2.80;;;;;;;;;;5042296;28;20041;-59
2022/01/05 07:02:58;;;;;;;9.75;2.13;;;;;;;;;;5042964;28;20071;-58
2022/01/05 07:05:24;;;;;;;15.02;2.10;;;;;;;;;;5043389;28;20025;-58
2022/01/05 07:07:49;;;;;;;15.65;2.63;;;;;;;;;;5042507;28;20033;-57
2022/01/05 07:10:15;;;;;;;2.30;0.88;;;;;;;;;;5044038;28;20068;-59
2022/01/05 07:12:41;;;;;;;8.55;1.27;;;;;;;;;;5047208;28;20067;-58
2022/01/05 07:15:07;;;;;;;12.68;1.63;;;;;;;;;;5048225;28;20067;-57
2022/01/05 07:17:33;;;;;;;3.53;1.38;;;;;;;;;;5043549;28;20075;-58
2022/01/05 07:19:58;;;;;;;15.95;2.22;;;;;;;;;;5045620;28;20438;-58
2022/01/05 07:22:24;;;;;;;9.50;2.83;;;;;;;;;;5045612;28;20036;-57
2022/01/05 07:24:50;;;;;;;6.32;1.33;;;;;;;;;;5046095;28;20119;-57
2022/01/05 07:27:16;;;;;;;8.00;1.15;;;;;;;;;;5042817;28;20028;-57
2022/01/05 07:29:41;;;;;;;7.93;1.60;;;;;;;;;;5046501;28;20683;-57
2022/01/05 07:32:07;;;;;;;14.63;1.92;;;;;;;;;;5053607;28;20032;-58
2022/01/05 07:34:33;;;;;;;5.68;1.95;;;;;;;;;;5041670;28;20591;-57
2022/01/05 07:36:58;;;;;;;6.53;2.38;;;;;;;;;;5042665;28;20052;-57
2022/01/05 07:39:24;;;;;;;12.70;1.95;;;;;;;;;;5041720;28;20072;-57
2022/01/05 07:41:49;;;;;;;8.48;2.03;;;;;;;;;;5043832;28;20071;-57
2022/01/05 07:44:15;;;;;;;15.60;1.75;;;;;;;;;;5043948;28;20127;-58
2022/01/05 07:46:40;;;;;;;5.28;1.63;;;;;;;;;;5046317;28;20029;-58
2022/01/05 07:49:06;;;;;;;13.85;2.78;;;;;;;;;;5045452;28;20044;-57
2022/01/05 07:51:32;;;;;;;11.20;1.75;;;;;;;;;;5040758;28;20556;-57
2022/01/05 07:53:58;;;;;;;11.68;2.17;;;;;;;;;;5036009;28;20049;-57
2022/01/05 07:56:23;;;;;;;11.20;2.15;;;;;;;;;;5045284;28;20383;-57
2022/01/05 07:58:49;;;;;;;14.27;2.25;;;;;;;;;;5044972;28;20041;-56
2022/01/05 08:01:18;;;;;;;16.50;2.28;;;;;;;;;;5043136;28;20056;-57
2022/01/05 08:03:44;;;;;;;11.32;2.25;;;;;;;;;;5045648;28;20523;-57
2022/01/05 08:06:10;;;;;;;4.68;2.45;;;;;;;;;;5032978;28;20064;-57
2022/01/05 08:08:35;;;;;;;10.52;1.95;;;;;;;;;;5019568;28;20151;-57
2022/01/05 08:11:01;;;;;;;11.93;2.33;;;;;;;;;;5033199;28;20033;-57
2022/01/05 08:13:26;;;;;;;16.10;2.13;;;;;;;;;;5030931;28;20082;-57
2022/01/05 08:15:52;;;;;;;8.05;1.20;;;;;;;;;;5037428;28;20060;-57
2022/01/05 08:18:18;;;;;;;13.15;1.80;;;;;;;;;;5035474;28;20600;-57
2022/01/05 08:20:45;;;;;;;15.65;2.33;;;;;;;;;;5038974;28;20021;-57
2022/01/05 08:23:15;;;;;;;11.15;2.47;;;;;;;;;;5040579;28;20025;-57
2022/01/05 08:25:40;;;;;;;8.65;1.70;;;;;;;;;;5035849;28;20526;-58
2022/01/05 08:28:08;;;;;;;28.88;2.30;;;;;;;;;;5039810;28;20060;-58
2022/01/05 08:30:35;;;;;;;12.27;1.83;;;;;;;;;;5041360;28;20040;-57
2022/01/05 08:33:03;;;;;;;9.38;1.73;;;;;;;;;;5043036;28;20064;-58
2022/01/05 08:35:29;;;;;;;9.25;1.23;;;;;;;;;;5036802;28;20049;-57
2022/01/05 08:37:56;;;;;;;11.88;2.20;;;;;;;;;;5041466;28;20064;-57
2022/01/05 08:40:24;;;;;;;15.25;2.28;;;;;;;;;;5036664;28;20028;-57
2022/01/05 08:42:51;;;;;;;10.70;2.25;;;;;;;;;;5034978;28;20037;-58
2022/01/05 08:45:18;;;;;;;20.45;2.15;;;;;;;;;;5040186;28;20033;-58
2022/01/05 08:47:47;;;;;;;8.43;2.28;;;;;;;;;;5038239;28;20132;-57
2022/01/05 08:50:14;;;;;;;5.07;1.13;;;;;;;;;;5037995;28;20032;-57
2022/01/05 08:52:40;;;;;;;15.45;2.30;;;;;;;;;;5039141;28;20163;-59
2022/01/05 08:55:06;;;;;;;11.60;1.35;;;;;;;;;;5041984;28;20482;-58
2022/01/05 08:57:32;;;;;;;8.98;1.52;;;;;;;;;;5039165;28;20090;-58
2022/01/05 08:59:57;;;;;;;13.50;2.00;;;;;;;;;;5035967;28;20033;-57
2022/01/05 09:02:23;;;;;;;10.02;2.25;;;;;;;;;;5038216;28;20228;-58
2022/01/05 09:04:51;;;;;;;8.90;2.03;;;;;;;;;;5041862;28;20040;-58
2022/01/05 09:07:18;;;;;;;23.30;3.70;;;;;;;;;;5036933;28;20037;-58
2022/01/05 09:09:44;;;;;;;12.23;2.25;;;;;;;;;;5037396;28;20029;-58
2022/01/05 09:12:10;;;;;;;7.90;2.00;;;;;;;;;;5042941;28;20040;-58
2022/01/05 09:14:36;;;;;;;15.07;2.65;;;;;;;;;;5040004;28;20526;-58
2022/01/05 09:17:02;;;;;;;23.15;3.80;;;;;;;;;;5037329;28;20068;-58
2022/01/05 09:19:28;;;;;;;14.82;3.22;;;;;;;;;;5033628;28;20064;-58
2022/01/05 09:21:54;;;;;;;21.70;2.25;;;;;;;;;;5048726;28;20112;-58
2022/01/05 09:24:20;;;;;;;14.77;2.58;;;;;;;;;;5045972;28;20017;-58
2022/01/05 09:26:46;;;;;;;14.65;2.55;;;;;;;;;;5040382;28;20033;-58
2022/01/05 09:29:11;;;;;;;12.85;2.45;;;;;;;;;;5044857;28;20086;-58
2022/01/05 09:31:37;;;;;;;15.15;3.92;;;;;;;;;;5041661;28;20047;-58
2022/01/05 09:34:03;;;;;;;25.98;3.78;;;;;;;;;;5043077;28;20057;-57
2022/01/05 09:36:50;;;;;;;25.13;3.78;;;;;;;;;;5042227;28;20131;-58
2022/01/05 09:42:08;;;;;;;17.88;3.20;;;;;;;;;;5024409;28;20037;-57
2022/01/05 09:44:39;;;;;;;9.57;2.78;;;;;;;;;;5040514;28;20128;-57
2022/01/05 09:47:10;;;;;;;24.48;3.67;;;;;;;;;;5044409;28;20021;-58
2022/01/05 09:49:45;;;;;;;19.08;3.42;;;;;;;;;;5045716;28;20521;-57
2022/01/05 09:52:11;;;;;;;19.88;3.75;;;;;;;;;;5046047;28;20182;-58
2022/01/05 09:54:42;;;;;;;12.90;2.42;;;;;;;;;;5041147;28;20036;-58
2022/01/05 09:57:09;;;;;;;7.55;2.10;;;;;;;;;;5047489;28;20092;-57
2022/01/05 09:59:35;;;;;;;10.60;2.10;;;;;;;;;;5045980;28;20124;-58
2022/01/05 10:02:05;;;;;;;29.90;3.63;;;;;;;;;;5048779;28;20506;-58
2022/01/05 10:04:31;;;;;;;12.65;3.05;;;;;;;;;;5043268;28;20110;-58
2022/01/05 10:06:56;;;;;;;17.85;3.75;;;;;;;;;;5042274;28;20542;-58
2022/01/05 10:09:22;;;;;;;17.25;3.25;;;;;;;;;;5045032;28;20151;-57
2022/01/05 10:11:48;;;;;;;15.23;3.35;;;;;;;;;;5044740;28;20040;-58
2022/01/05 10:14:15;;;;;;;7.50;2.42;;;;;;;;;;5046975;28;20238;-58
2022/01/05 10:16:41;;;;;;;15.32;3.05;;;;;;;;;;5042444;28;20064;-57
2022/01/05 10:19:08;;;;;;;12.30;2.15;;;;;;;;;;5044149;28;20037;-56
2022/01/05 10:21:39;;;;;;;20.42;2.50;;;;;;;;;;5044948;28;20492;-58
2022/01/05 10:24:05;;;;;;;14.48;3.17;;;;;;;;;;5039329;28;20134;-57
2022/01/05 10:26:40;;;;;;;12.13;3.92;;;;;;;;;;5041972;28;20511;-59
2022/01/05 10:29:17;;;;;;;18.35;2.92;;;;;;;;;;5042418;28;20040;-58
2022/01/05 10:31:51;;;;;;;9.27;2.17;;;;;;;;;;5038001;28;20025;-57
2022/01/05 10:34:20;;;;;;;9.52;2.53;;;;;;;;;;5040125;28;20446;-57
2022/01/05 10:36:48;;;;;;;17.05;3.13;;;;;;;;;;5041287;28;20045;-57
2022/01/05 10:39:14;;;;;;;14.75;3.33;;;;;;;;;;5038586;28;20029;-57
2022/01/05 10:41:40;;;;;;;17.98;2.90;;;;;;;;;;5026722;28;20067;-58
2022/01/05 10:44:24;;;;;;;10.55;2.72;;;;;;;;;;5036304;28;20543;-57
2022/01/05 10:46:52;;;;;;;20.08;3.38;;;;;;;;;;5039933;28;20031;-57
2022/01/05 10:49:39;;;;;;;18.83;2.65;;;;;;;;;;5032671;28;20455;-58
2022/01/05 10:52:22;;;;;;;18.27;3.03;;;;;;;;;;5029198;28;20029;-57
2022/01/05 10:54:49;;;;;;;9.52;2.78;;;;;;;;;;5034032;28;20036;-57
2022/01/05 10:57:15;;;;;;;16.83;3.13;;;;;;;;;;5039767;28;20029;-57
2022/01/05 10:59:54;;;;;;;11.48;3.95;;;;;;;;;;5032351;28;20025;-57
2022/01/05 11:02:34;;;;;;;24.20;3.42;;;;;;;;;;5041340;28;20111;-57
2022/01/05 11:05:06;;;;;;;19.05;3.47;;;;;;;;;;5034971;28;20503;-58
2022/01/05 11:07:34;;;;;;;11.63;3.25;;;;;;;;;;5037202;28;20057;-58
2022/01/05 11:10:05;;;;;;;18.10;3.30;;;;;;;;;;5039851;28;20033;-58
2022/01/05 11:12:51;;;;;;;19.08;4.80;;;;;;;;;;5034658;28;20036;-57
2022/01/05 11:15:31;;;;;;;10.13;2.67;;;;;;;;;;5039215;28;20479;-58
2022/01/05 11:18:21;;;;;;;14.15;3.63;;;;;;;;;;5040326;28;20035;-58
2022/01/05 11:21:01;;;;;;;25.40;5.35;;;;;;;;;;5039798;28;20056;-59
2022/01/05 11:23:28;;;;;;;23.58;3.65;;;;;;;;;;5038750;28;20036;-59
2022/01/05 11:25:56;;;;;;;19.95;4.30;;;;;;;;;;5031673;28;20769;-59
2022/01/05 11:28:24;;;;;;;20.63;5.40;;;;;;;;;;5041570;28;20033;-58
2022/01/05 11:30:51;;;;;;;8.25;2.70;;;;;;;;;;5041232;28;20037;-58
2022/01/05 11:33:18;;;;;;;25.42;4.63;;;;;;;;;;5040558;28;20654;-58
2022/01/05 11:35:43;;;;;;;16.75;4.20;;;;;;;;;;5044012;28;20029;-58
2022/01/05 11:38:10;;;;;;;25.48;3.25;;;;;;;;;;5041636;28;20086;-58
2022/01/05 11:41:06;;;;;;;39.13;4.43;;;;;;;;;;5045590;28;20033;-58
2022/01/05 11:43:33;;;;;;;19.33;2.88;;;;;;;;;;5038310;28;20652;-58
2022/01/05 11:46:18;;;;;;;13.70;3.40;;;;;;;;;;5042309;28;20191;-58
2022/01/05 11:49:10;;;;;;;20.00;4.72;;;;;;;;;;5038126;28;20028;-58
2022/01/05 11:51:41;;;;;;;27.48;4.10;;;;;;;;;;5030839;28;20503;-58
2022/01/05 11:54:24;;;;;;;28.10;3.90;;;;;;;;;;5036193;28;20218;-59
2022/01/05 11:57:10;;;;;;;20.45;3.47;;;;;;;;;;5038564;28;20034;-58
2022/01/05 11:59:41;;;;;;;25.15;4.05;;;;;;;;;;5039870;28;20554;-59
2022/01/05 12:02:13;;;;;;;18.20;3.63;;;;;;;;;;5041106;28;20035;-59
2022/01/05 12:04:56;;;;;;;25.60;6.28;;;;;;;;;;5039590;28;20274;-58
2022/01/05 12:08:00;;;;;;;20.25;5.57;;;;;;;;;;5039215;28;20036;-58
2022/01/05 12:10:51;;;;;;;18.95;5.90;;;;;;;;;;5024421;28;20051;-59
2022/01/05 12:13:35;;;;;;;19.70;4.80;;;;;;;;;;5042602;28;20064;-59
2022/01/05 12:16:01;;;;;;;20.67;4.65;;;;;;;;;;5037907;28;20139;-59
2022/01/05 12:18:30;;;;;;;18.42;4.97;;;;;;;;;;5036795;28;20033;-58
2022/01/05 12:20:57;;;;;;;16.00;3.67;;;;;;;;;;5043018;28;20111;-58
2022/01/05 12:23:31;;;;;;;24.77;3.67;;;;;;;;;;5038205;28;20241;-59
2022/01/05 12:26:02;;;;;;;13.90;3.08;;;;;;;;;;5041227;28;20045;-58
2022/01/05 12:28:37;;;;;;;11.43;3.08;;;;;;;;;;5039106;28;20031;-60
2022/01/05 12:31:07;;;;;;;18.45;3.60;;;;;;;;;;5036055;28;20037;-58
2022/01/05 12:33:52;;;;;;;11.25;2.63;;;;;;;;;;5040311;28;20420;-58
2022/01/05 12:36:38;;;;;;;7.90;2.85;;;;;;;;;;5034324;28;20045;-58
2022/01/05 12:39:07;;;;;;;12.60;3.28;;;;;;;;;;5035914;28;20033;-57
2022/01/05 12:41:37;;;;;;;24.08;4.20;;;;;;;;;;5040823;28;20021;-58
2022/01/05 12:44:06;;;;;;;18.25;3.80;;;;;;;;;;5041203;28;20025;-58
2022/01/05 12:46:33;;;;;;;10.45;2.70;;;;;;;;;;5036905;28;20794;-58
2022/01/05 12:49:00;;;;;;;20.80;4.32;;;;;;;;;;5042641;28;20078;-57
2022/01/05 12:51:36;;;;;;;22.33;3.60;;;;;;;;;;5037549;28;20067;-58
2022/01/05 12:54:10;;;;;;;9.30;2.85;;;;;;;;;;5035647;28;20029;-58
2022/01/05 12:56:40;;;;;;;14.07;3.28;;;;;;;;;;5033599;28;20039;-57
2022/01/05 12:59:10;;;;;;;16.10;2.78;;;;;;;;;;5035424;28;20040;-58
2022/01/05 13:01:35;;;;;;;22.75;3.58;;;;;;;;;;5037667;28;20081;-58
2022/01/05 13:04:08;;;;;;;23.42;4.38;;;;;;;;;;5029029;28;20403;-58
2022/01/05 13:06:35;;;;;;;21.50;4.70;;;;;;;;;;5036259;28;20031;-58
2022/01/05 13:09:07;;;;;;;19.05;4.13;;;;;;;;;;5034821;28;20913;-58
2022/01/05 13:11:42;;;;;;;16.27;5.03;;;;;;;;;;5033049;28;20021;-58
2022/01/05 13:14:20;;;;;;;19.55;3.78;;;;;;;;;;5034448;28;20033;-58
2022/01/05 13:16:55;;;;;;;18.63;3.42;;;;;;;;;;5034619;28;20029;-58
2022/01/05 13:19:23;;;;;;;16.73;4.28;;;;;;;;;;5036489;28;20116;-59
2022/01/05 13:21:50;;;;;;;22.48;4.80;;;;;;;;;;5019777;28;20036;-58
2022/01/05 13:24:16;;;;;;;22.52;4.82;;;;;;;;;;5033290;28;20033;-57
2022/01/05 13:27:04;;;;;;;17.20;4.75;;;;;;;;;;5034964;28;20036;-58
2022/01/05 13:29:31;;;;;;;13.52;4.88;;;;;;;;;;5035240;28;20060;-58
2022/01/05 13:32:02;;;;;;;22.42;4.20;;;;;;;;;;5070593;28;20049;-59
2022/01/05 13:34:40;;;;;;;11.48;4.00;;;;;;;;;;5036927;28;20025;-59
2022/01/05 13:37:08;;;;;;;16.30;5.72;;;;;;;;;;5034461;28;20192;-58
2022/01/05 13:39:47;;;;;;;26.38;4.47;;;;;;;;;;5034487;28;20033;-58
2022/01/05 13:42:29;;;;;;;20.35;5.32;;;;;;;;;;5033071;28;20539;-59
2022/01/05 13:44:55;;;;;;;18.90;5.00;;;;;;;;;;5043715;28;20143;-58
2022/01/05 13:47:23;;;;;;;21.95;5.88;;;;;;;;;;5041546;28;20120;-60
2022/01/05 13:50:18;;;;;;;15.27;4.57;;;;;;;;;;5039125;28;20117;-58
2022/01/05 13:52:46;;;;;;;13.20;3.90;;;;;;;;;;5039783;28;20104;-58
2022/01/05 13:55:24;;;;;;;16.65;4.88;;;;;;;;;;5037849;28;20033;-57
2022/01/05 13:58:01;;;;;;;15.77;2.95;;;;;;;;;;5038750;28;20295;-57
2022/01/05 14:00:26;;;;;;;20.25;3.63;;;;;;;;;;5036651;28;20041;-58
2022/01/05 14:02:52;;;;;;;15.32;3.78;;;;;;;;;;5050512;28;20044;-58
2022/01/05 14:05:17;;;;;;;17.38;3.97;;;;;;;;;;5034138;28;20411;-59
2022/01/05 14:07:43;;;;;;;14.25;3.92;;;;;;;;;;5041692;28;20448;-58
2022/01/05 14:10:15;;;;;;;16.55;3.97;;;;;;;;;;5045146;28;20033;-58
2022/01/05 14:12:42;;;;;;;16.40;3.80;;;;;;;;;;5046761;28;20051;-58
2022/01/05 14:15:10;;;;;;;20.70;4.07;;;;;;;;;;5046567;28;20542;-58
2022/01/05 14:17:36;;;;;;;13.48;2.85;;;;;;;;;;5043960;28;20137;-58
2022/01/05 14:20:12;;;;;;;22.10;3.90;;;;;;;;;;5042020;28;20194;-57
2022/01/05 14:22:38;;;;;;;13.43;3.13;;;;;;;;;;5043433;28;20021;-58
2022/01/05 14:25:04;;;;;;;14.48;3.45;;;;;;;;;;5040557;28;20025;-58
2022/01/05 14:27:36;;;;;;;21.25;4.50;;;;;;;;;;5049156;28;20029;-57
2022/01/05 14:30:07;;;;;;;19.80;4.38;;;;;;;;;;5048715;28;20037;-57
2022/01/05 14:32:35;;;;;;;19.17;4.78;;;;;;;;;;5043922;28;20036;-58
2022/01/05 14:35:02;;;;;;;20.30;4.40;;;;;;;;;;5042381;28;20135;-58
2022/01/05 14:37:28;;;;;;;15.63;4.00;;;;;;;;;;5044223;28;20155;-58
2022/01/05 14:39:56;;;;;;;13.98;4.38;;;;;;;;;;5041608;28;20489;-58
2022/01/05 14:42:22;;;;;;;9.45;3.60;;;;;;;;;;5047075;28;20487;-58